22:19
Airports
History
Links
Donate
Help keep this website running!
PayPal
Bitcoin
This page is community maintained. The information is intended for PC simulator navigation or reference.
Always use approved charts for navigation.
EDBF
Fehrbellin
Fehrbellin (EDBF)
Fehrbellin, Brandenburg, Germany (16833)
(U)
Lat/Lng:52° 47' 31.97" N / 12° 46' 0.99" E
52.792213 / 12.766941
Elevation:138'ft / 42mMSL
ID / ICAO:EDBF
Runways:1
Longest:11-29
Concrete 821m / 2,693ft
Nearby Weather21:50 GMT 2017-09-19
Nearby weather at EDDT, Berlin Tegel located 27.1 nautical miles from EDBF
Altimeter: 30.03
Visibility: 6.2 statute miles
Wind: 3 knots (from 280°)
Temp: 10°c / 50°f
Humidity: 93.5%

METAR: EDDT 192150Z 28003KT CAVOK 10/09 Q1017

(Powered by phpweather)
Nearby VORs <50NM
Nearby NDBs
Runway 11 / 29
Dimensions:820.8 x 29.9m 2693' x 98'ft
Surface:Concrete
Runway 11 [A]Runway 29 [B]
Heading:107°TH 287°TH
Lat:
Lng:
52° 47' 35.85"N
12° 45' 39.98"E
52° 47' 28.09"N
12° 46' 21.99"E
User Notes and Comments
52° 47' 31.97" N / 12° 46' 0.99" E
Distance To
Airport ID:
Nearby Airports
4 Bienenfarm Nauen 9.2 NM
EDOI S 185°
4 Segeletz 9.2 NM
EDAI WNW 282°
4 Nauen 13.0 NM
EDCN SSE 151°
(U) KYRITZ 16.7 NM
EDBK WNW 301°
4 TORGAU-BEILRODE 23.3 NM
EDOG NE 51°
(C) Berlin Tegel 27.1 NM
EDDT ( WX ) SE 126°
(U) BRANDENBURG BRIEST 27.7 NM
EDUB SSW 207°
VFR Chart
Flight Planning at SkyVector.com